createdAt,value
2022-11-20T00:01:26.153Z,26.27
2022-11-20T00:03:54.528Z,27.97
2022-11-20T00:06:22.503Z,26.07
2022-11-20T00:08:49.499Z,32.17
2022-11-20T00:11:21.430Z,26.60
2022-11-20T00:13:50.354Z,29.80
2022-11-20T00:16:20.122Z,34.53
2022-11-20T00:18:47.442Z,27.13
2022-11-20T00:21:16.966Z,35.93
2022-11-20T00:23:44.596Z,30.93
2022-11-20T00:26:13.931Z,29.80
2022-11-20T00:28:41.040Z,26.87
2022-11-20T00:31:15.775Z,31.07
2022-11-20T00:33:44.374Z,31.57
2022-11-20T00:36:19.662Z,30.77
2022-11-20T00:38:46.767Z,29.93
2022-11-20T00:41:17.258Z,27.07
2022-11-20T00:43:44.573Z,28.33
2022-11-20T00:46:15.454Z,28.07
2022-11-20T00:48:43.080Z,30.63
2022-11-20T00:51:12.141Z,30.23
2022-11-20T00:53:38.975Z,33.17
2022-11-20T00:56:08.373Z,29.13
2022-11-20T00:58:40.372Z,29.30
2022-11-20T01:01:21.898Z,34.33
2022-11-20T01:03:50.985Z,25.90
2022-11-20T01:06:33.668Z,32.07
2022-11-20T01:09:04.137Z,27.63
2022-11-20T01:11:33.657Z,35.13
2022-11-20T01:14:01.956Z,32.90
2022-11-20T01:16:33.308Z,27.37
2022-11-20T01:19:02.334Z,31.83
2022-11-20T01:21:31.512Z,30.33
2022-11-20T01:23:59.385Z,26.73
2022-11-20T01:26:29.173Z,27.77
2022-11-20T01:28:56.928Z,28.43
2022-11-20T01:31:26.761Z,28.77
2022-11-20T01:33:56.867Z,37.10
2022-11-20T01:36:26.212Z,29.10
2022-11-20T01:38:55.369Z,30.80
2022-11-20T01:41:42.058Z,32.27
2022-11-20T01:44:13.263Z,30.67
2022-11-20T01:46:46.419Z,33.47
2022-11-20T01:49:15.942Z,30.20
2022-11-20T01:51:47.940Z,29.97
2022-11-20T01:54:20.576Z,32.97
2022-11-20T01:56:49.162Z,35.70
2022-11-20T01:59:20.545Z,29.13
2022-11-20T02:01:48.007Z,42.30
2022-11-20T02:04:16.432Z,33.43
2022-11-20T02:06:50.732Z,30.53
2022-11-20T02:09:18.059Z,33.10
2022-11-20T02:11:45.039Z,29.77
2022-11-20T02:14:12.460Z,38.07
2022-11-20T02:16:45.023Z,32.07
2022-11-20T02:19:28.043Z,27.77
2022-11-20T02:22:00.178Z,35.33
2022-11-20T02:24:27.105Z,27.73
2022-11-20T02:27:08.701Z,34.47
2022-11-20T02:29:52.981Z,30.00
2022-11-20T02:32:25.289Z,32.00
2022-11-20T02:34:52.164Z,28.03
2022-11-20T02:37:20.530Z,31.07
2022-11-20T02:39:49.846Z,31.10
2022-11-20T02:42:16.917Z,32.77
2022-11-20T02:44:43.936Z,31.07
2022-11-20T02:47:11.190Z,33.37
2022-11-20T02:49:37.952Z,32.60
2022-11-20T02:52:04.894Z,33.70
2022-11-20T02:54:32.357Z,28.50
2022-11-20T02:56:59.318Z,27.10
2022-11-20T02:59:26.245Z,33.73
2022-11-20T03:01:53.415Z,28.27
2022-11-20T03:04:20.872Z,29.90
2022-11-20T03:06:48.024Z,32.83
2022-11-20T03:09:15.195Z,32.10
2022-11-20T03:11:42.586Z,28.07
2022-11-20T03:14:09.887Z,30.57
2022-11-20T03:16:37.078Z,30.83
2022-11-20T03:19:04.283Z,29.77
2022-11-20T03:21:31.448Z,32.87
2022-11-20T03:23:58.596Z,33.33
2022-11-20T03:26:26.865Z,31.03
2022-11-20T03:28:55.345Z,33.70
2022-11-20T03:31:25.054Z,28.50
2022-11-20T03:33:52.260Z,28.57
2022-11-20T03:36:20.211Z,33.80
2022-11-20T03:38:47.791Z,33.47
2022-11-20T03:41:16.426Z,29.20
2022-11-20T03:43:43.772Z,31.87
2022-11-20T03:46:10.892Z,32.47
2022-11-20T03:48:38.174Z,28.53
2022-11-20T03:51:12.482Z,30.90
2022-11-20T03:53:40.509Z,35.20
2022-11-20T03:56:08.081Z,32.73
2022-11-20T03:58:38.190Z,30.13
2022-11-20T04:01:08.421Z,30.10
2022-11-20T04:03:36.217Z,29.33
2022-11-20T04:06:05.756Z,28.47
2022-11-20T04:08:33.057Z,31.40
2022-11-20T04:11:10.297Z,31.33
2022-11-20T04:13:37.752Z,28.20
2022-11-20T04:16:05.487Z,27.27
2022-11-20T04:18:32.597Z,28.50
2022-11-20T04:21:00.187Z,34.20
2022-11-20T04:23:28.942Z,30.50
2022-11-20T04:25:56.280Z,26.47
2022-11-20T04:28:23.403Z,30.27
2022-11-20T04:30:50.667Z,28.50
2022-11-20T04:33:17.996Z,30.80
2022-11-20T04:35:46.816Z,28.17
2022-11-20T04:38:14.341Z,30.60
2022-11-20T04:40:41.480Z,27.57
2022-11-20T04:43:08.630Z,28.23
2022-11-20T04:45:35.816Z,29.50
2022-11-20T04:48:03.126Z,26.10
2022-11-20T04:50:30.332Z,29.03
2022-11-20T04:52:57.590Z,27.93
2022-11-20T04:55:24.767Z,27.63
2022-11-20T04:57:52.569Z,28.07
2022-11-20T05:00:19.824Z,28.93
2022-11-20T05:02:47.131Z,27.63
2022-11-20T05:05:14.368Z,24.43
2022-11-20T05:07:41.649Z,32.97
2022-11-20T05:10:09.163Z,27.93
2022-11-20T05:12:36.399Z,27.07
2022-11-20T05:15:03.729Z,28.90
2022-11-20T05:17:31.043Z,27.07
2022-11-20T05:19:58.409Z,35.80
2022-11-20T05:22:25.608Z,36.20
2022-11-20T05:24:52.775Z,37.77
2022-11-20T05:27:19.975Z,33.33
2022-11-20T05:29:47.137Z,30.83
2022-11-20T05:32:14.374Z,37.50
2022-11-20T05:34:41.576Z,42.97
2022-11-20T05:37:08.802Z,45.93
2022-11-20T05:39:36.033Z,43.53
2022-11-20T05:42:21.824Z,41.97
2022-11-20T05:44:49.016Z,51.60
2022-11-20T05:47:16.229Z,47.73
2022-11-20T05:49:43.479Z,50.67
2022-11-20T05:52:10.686Z,48.73
2022-11-20T05:54:37.975Z,51.80
2022-11-20T05:57:05.259Z,44.87
2022-11-20T05:59:32.457Z,48.63
2022-11-20T06:01:59.667Z,41.30
2022-11-20T06:04:27.022Z,46.33
2022-11-20T06:06:54.222Z,43.97
2022-11-20T06:09:21.594Z,42.63
2022-11-20T06:11:49.081Z,45.57
2022-11-20T06:14:16.312Z,48.97
2022-11-20T06:16:43.478Z,45.07
2022-11-20T06:19:10.681Z,45.87
2022-11-20T06:21:37.841Z,49.83
2022-11-20T06:24:05.050Z,49.97
2022-11-20T06:26:32.598Z,48.13
2022-11-20T06:28:59.743Z,42.87
2022-11-20T06:31:27.461Z,44.77
2022-11-20T06:33:54.747Z,45.93
2022-11-20T06:36:22.738Z,49.73
2022-11-20T06:38:50.395Z,45.37
2022-11-20T06:41:18.899Z,45.77
2022-11-20T06:43:46.154Z,50.83
2022-11-20T06:46:14.238Z,52.47
2022-11-20T06:48:54.827Z,45.07
2022-11-20T06:51:22.392Z,46.77
2022-11-20T06:53:50.364Z,44.47
2022-11-20T06:56:17.624Z,49.03
2022-11-20T06:58:45.158Z,42.80
2022-11-20T07:01:13.483Z,41.47
2022-11-20T07:03:41.365Z,44.47
2022-11-20T07:06:08.912Z,39.77
2022-11-20T07:08:36.375Z,41.50
2022-11-20T07:11:04.854Z,37.67
2022-11-20T07:13:32.462Z,34.70
2022-11-20T07:16:03.712Z,36.77
2022-11-20T07:18:31.206Z,40.47
2022-11-20T07:21:01.406Z,33.70
2022-11-20T07:23:28.617Z,41.43
2022-11-20T07:25:55.806Z,38.17
2022-11-20T07:28:23.077Z,37.40
2022-11-20T07:30:53.979Z,42.13
2022-11-20T07:33:21.517Z,35.30
2022-11-20T07:35:48.706Z,36.97
2022-11-20T07:38:16.046Z,37.63
2022-11-20T07:40:43.288Z,41.90
2022-11-20T07:43:10.580Z,39.90
2022-11-20T07:45:37.889Z,45.90
2022-11-20T07:48:05.216Z,41.53
2022-11-20T07:50:32.423Z,42.87
2022-11-20T07:53:06.047Z,45.53
2022-11-20T07:55:33.860Z,41.87
2022-11-20T07:58:01.241Z,35.27
2022-11-20T08:00:29.030Z,42.03
2022-11-20T08:02:56.257Z,38.43
2022-11-20T08:05:23.669Z,44.17
2022-11-20T08:07:51.090Z,40.10
2022-11-20T08:10:18.530Z,40.83
2022-11-20T08:13:11.054Z,34.03
2022-11-20T08:15:39.134Z,38.37
2022-11-20T08:18:29.943Z,39.23
2022-11-20T08:20:54.942Z,37.33
2022-11-20T08:23:22.256Z,37.73
2022-11-20T08:25:52.115Z,42.87
2022-11-20T08:28:21.859Z,35.97
2022-11-20T08:30:49.886Z,40.73
2022-11-20T08:33:18.433Z,38.83
2022-11-20T08:35:45.654Z,37.03
2022-11-20T08:38:12.914Z,28.63
2022-11-20T08:40:40.293Z,32.60
2022-11-20T08:43:07.494Z,32.87
2022-11-20T08:45:35.551Z,35.97
2022-11-20T08:48:03.608Z,36.60
2022-11-20T08:50:33.023Z,37.30
2022-11-20T08:53:04.429Z,37.97
2022-11-20T08:55:31.599Z,35.90
2022-11-20T08:57:58.731Z,35.23
2022-11-20T09:00:25.926Z,38.53
2022-11-20T09:02:53.463Z,30.07
2022-11-20T09:05:20.650Z,34.43
2022-11-20T09:07:47.949Z,32.10
2022-11-20T09:10:30.420Z,29.37
2022-11-20T09:12:57.768Z,31.10
2022-11-20T09:15:25.441Z,31.83
2022-11-20T09:17:56.617Z,29.37
2022-11-20T09:20:23.951Z,24.50
2022-11-20T09:22:51.082Z,27.20
2022-11-20T09:25:18.263Z,24.33
2022-11-20T09:27:47.063Z,24.80
2022-11-20T09:30:15.280Z,23.00
2022-11-20T09:32:42.609Z,38.27
2022-11-20T09:35:10.120Z,32.13
2022-11-20T09:37:37.257Z,38.43
2022-11-20T09:40:04.677Z,38.83
2022-11-20T09:42:38.155Z,37.67
2022-11-20T09:45:14.304Z,30.57
2022-11-20T09:47:51.029Z,33.93
2022-11-20T09:50:21.094Z,41.60
2022-11-20T09:52:57.137Z,30.67
2022-11-20T09:55:24.498Z,28.80
2022-11-20T09:57:53.531Z,24.80
2022-11-20T10:00:22.234Z,23.97
2022-11-20T10:02:49.515Z,23.13
2022-11-20T10:05:22.750Z,20.73
2022-11-20T10:08:10.041Z,27.47
2022-11-20T10:10:56.058Z,21.03
2022-11-20T10:13:37.674Z,23.63
2022-11-20T10:16:23.492Z,23.90
2022-11-20T10:18:53.862Z,26.60
2022-11-20T10:21:21.056Z,27.00
2022-11-20T10:23:50.968Z,26.03
2022-11-20T10:26:36.806Z,27.87
2022-11-20T10:29:17.745Z,27.87
2022-11-20T10:31:51.478Z,23.33
2022-11-20T10:34:58.353Z,21.43
2022-11-20T10:37:27.169Z,26.67
2022-11-20T10:40:11.522Z,23.23
2022-11-20T10:42:48.197Z,29.50
2022-11-20T10:45:23.876Z,32.63
2022-11-20T10:47:51.696Z,29.90
2022-11-20T10:50:22.648Z,26.40
2022-11-20T10:53:07.616Z,26.87
2022-11-20T10:55:39.966Z,22.37
2022-11-20T10:58:12.588Z,24.70
2022-11-20T11:00:39.519Z,22.40
2022-11-20T11:03:29.604Z,23.23
2022-11-20T11:06:18.233Z,23.33
2022-11-20T11:08:45.765Z,22.50
2022-11-20T11:11:33.558Z,23.80
2022-11-20T11:14:16.584Z,24.07
2022-11-20T11:16:57.977Z,26.23
2022-11-20T11:19:25.742Z,24.33
2022-11-20T11:21:57.583Z,26.60
2022-11-20T11:24:42.396Z,25.43
2022-11-20T11:27:18.814Z,20.77
2022-11-20T11:29:46.961Z,22.67
2022-11-20T11:32:15.018Z,22.63
2022-11-20T11:34:44.756Z,24.00
2022-11-20T11:37:35.748Z,22.60
2022-11-20T11:43:02.246Z,22.47
2022-11-20T11:45:29.765Z,19.87
2022-11-20T11:48:01.294Z,26.03
2022-11-20T11:50:30.002Z,25.63
2022-11-20T11:53:16.749Z,22.77
2022-11-20T11:55:49.237Z,27.27
2022-11-20T11:58:43.135Z,32.07
2022-11-20T12:01:25.451Z,20.90
2022-11-20T12:04:29.786Z,25.43
2022-11-20T12:07:24.290Z,29.07
2022-11-20T12:09:55.661Z,32.73
2022-11-20T12:12:31.096Z,23.13
2022-11-20T12:14:59.397Z,31.23
2022-11-20T12:17:26.059Z,23.90
2022-11-20T12:19:52.847Z,25.50
2022-11-20T12:22:43.137Z,32.27
2022-11-20T12:25:20.655Z,23.13
2022-11-20T12:27:53.228Z,25.93
2022-11-20T12:30:21.228Z,23.93
2022-11-20T12:33:01.579Z,26.07
2022-11-20T12:35:55.517Z,26.77
2022-11-20T12:38:49.459Z,32.93
2022-11-20T12:41:40.892Z,45.53
2022-11-20T12:45:10.660Z,34.43
2022-11-20T12:47:59.765Z,23.00
2022-11-20T12:51:08.023Z,22.80
2022-11-20T12:53:36.033Z,28.40
2022-11-20T12:56:24.314Z,24.67
2022-11-20T12:59:23.195Z,21.30
2022-11-20T13:02:06.637Z,26.33
2022-11-20T13:04:45.560Z,21.77
2022-11-20T13:07:16.179Z,21.67
2022-11-20T13:09:49.445Z,21.27
2022-11-20T13:12:32.683Z,23.60
2022-11-20T13:15:21.204Z,26.33
2022-11-20T13:17:59.272Z,23.13
2022-11-20T13:20:26.160Z,20.53
2022-11-20T13:22:58.313Z,23.30
2022-11-20T13:25:31.206Z,29.10
2022-11-20T13:28:04.874Z,20.80
2022-11-20T13:30:32.439Z,24.67
2022-11-20T13:33:13.108Z,22.97
2022-11-20T13:35:43.860Z,24.20
2022-11-20T13:38:13.765Z,26.37
2022-11-20T13:40:55.841Z,22.37
2022-11-20T13:43:45.545Z,28.57
2022-11-20T13:46:12.567Z,26.83
2022-11-20T13:48:47.693Z,26.60
2022-11-20T13:51:45.511Z,26.83
2022-11-20T13:54:52.780Z,28.77
2022-11-20T13:57:19.414Z,29.17
2022-11-20T14:00:21.970Z,25.93
2022-11-20T14:03:07.025Z,28.50
2022-11-20T14:05:49.451Z,23.43
2022-11-20T14:08:28.423Z,30.50
2022-11-20T14:11:19.962Z,26.50
2022-11-20T14:14:22.082Z,26.00
2022-11-20T14:16:50.539Z,26.57
2022-11-20T14:19:31.807Z,26.73
2022-11-20T14:22:14.885Z,33.70
2022-11-20T14:24:41.553Z,26.27
2022-11-20T14:27:22.234Z,27.77
2022-11-20T14:29:51.217Z,27.10
2022-11-20T14:32:25.949Z,27.03
2022-11-20T14:34:52.807Z,32.40
2022-11-20T14:37:33.117Z,29.47
2022-11-20T14:39:59.964Z,27.23
2022-11-20T14:42:28.544Z,28.43
2022-11-20T14:45:00.049Z,29.57
2022-11-20T14:47:31.879Z,31.17
2022-11-20T14:50:02.655Z,31.07
2022-11-20T14:52:32.531Z,26.60
2022-11-20T14:55:00.657Z,30.87
2022-11-20T14:57:33.593Z,29.70
2022-11-20T15:00:12.505Z,35.13
2022-11-20T15:02:50.876Z,29.30
2022-11-20T15:05:20.309Z,30.33
2022-11-20T15:07:49.714Z,33.07
2022-11-20T15:10:23.971Z,33.57
2022-11-20T15:13:06.004Z,29.90
2022-11-20T15:15:49.886Z,31.53
2022-11-20T15:18:34.099Z,32.33
2022-11-20T15:21:10.976Z,34.73
2022-11-20T15:23:37.682Z,33.80
2022-11-20T15:26:08.413Z,36.40
2022-11-20T15:28:44.122Z,35.13
2022-11-20T15:31:15.365Z,30.47
2022-11-20T15:33:44.513Z,36.67
2022-11-20T15:36:11.364Z,33.43
2022-11-20T15:38:38.341Z,34.23
2022-11-20T15:41:05.324Z,50.90
2022-11-20T15:43:32.246Z,37.03
2022-11-20T15:46:07.777Z,38.03
2022-11-20T15:48:47.865Z,33.53
2022-11-20T15:51:31.806Z,34.97
2022-11-20T15:53:59.296Z,39.50
2022-11-20T15:56:27.011Z,37.00
2022-11-20T15:58:54.198Z,47.07
2022-11-20T16:01:23.230Z,42.77
2022-11-20T16:03:50.509Z,36.83
2022-11-20T16:06:17.297Z,39.20
2022-11-20T16:08:44.699Z,32.20
2022-11-20T16:11:16.974Z,32.63
2022-11-20T16:14:02.381Z,41.37
2022-11-20T16:16:37.891Z,43.63
2022-11-20T16:19:05.247Z,42.07
2022-11-20T16:21:32.704Z,39.50
2022-11-20T16:24:04.313Z,44.03
2022-11-20T16:26:32.406Z,43.60
2022-11-20T16:29:03.813Z,44.30
2022-11-20T16:31:31.613Z,44.00
2022-11-20T16:34:00.340Z,45.63
2022-11-20T16:36:34.597Z,49.77
2022-11-20T16:39:05.552Z,46.53
2022-11-20T16:41:34.477Z,39.47
2022-11-20T16:44:03.740Z,43.23
2022-11-20T16:46:32.569Z,50.53
2022-11-20T16:49:01.316Z,47.97
2022-11-20T16:51:29.751Z,33.07
2022-11-20T16:53:56.949Z,41.90
2022-11-20T16:56:27.716Z,37.43
2022-11-20T16:58:57.102Z,36.80
2022-11-20T17:01:25.508Z,39.73
2022-11-20T17:04:06.103Z,45.57
2022-11-20T17:06:35.747Z,40.73
2022-11-20T17:09:03.386Z,37.80
2022-11-20T17:11:30.122Z,39.13
2022-11-20T17:13:57.940Z,41.37
2022-11-20T17:16:25.119Z,42.60
2022-11-20T17:18:58.181Z,35.93
2022-11-20T17:21:29.608Z,32.50
2022-11-20T17:23:56.360Z,35.40
2022-11-20T17:26:24.335Z,28.83
2022-11-20T17:29:10.130Z,35.23
2022-11-20T17:31:40.646Z,26.40
2022-11-20T17:34:11.067Z,33.67
2022-11-20T17:36:45.071Z,26.23
2022-11-20T17:39:14.636Z,36.67
2022-11-20T17:41:41.632Z,33.47
2022-11-20T17:44:13.906Z,26.83
2022-11-20T17:46:41.270Z,26.03
2022-11-20T17:49:08.395Z,21.67
2022-11-20T17:51:36.140Z,20.07
2022-11-20T17:54:07.760Z,22.83
2022-11-20T17:56:55.128Z,20.60
2022-11-20T17:59:22.481Z,21.80
2022-11-20T18:01:49.488Z,17.70
2022-11-20T18:04:16.808Z,16.97
2022-11-20T18:06:43.952Z,22.37
2022-11-20T18:09:10.805Z,17.43
2022-11-20T18:11:40.435Z,23.00
2022-11-20T18:14:34.713Z,19.17
2022-11-20T18:17:02.854Z,20.17
2022-11-20T18:19:38.908Z,15.43
2022-11-20T18:22:09.342Z,19.30
2022-11-20T18:24:37.238Z,13.53
2022-11-20T18:27:05.724Z,12.67
2022-11-20T18:29:32.617Z,13.13
2022-11-20T18:32:00.534Z,19.27
2022-11-20T18:34:27.848Z,13.67
2022-11-20T18:36:54.516Z,11.60
2022-11-20T18:39:21.752Z,18.30
2022-11-20T18:42:07.352Z,14.20
2022-11-20T18:44:53.551Z,17.17
2022-11-20T18:47:27.762Z,17.23
2022-11-20T18:49:57.179Z,14.57
2022-11-20T18:52:33.757Z,15.30
2022-11-20T18:55:05.075Z,16.73
2022-11-20T18:57:31.979Z,18.37
2022-11-20T19:00:08.416Z,18.13
2022-11-20T19:02:41.752Z,15.77
2022-11-20T19:05:10.510Z,20.83
2022-11-20T19:07:37.252Z,18.40
2022-11-20T19:10:05.177Z,20.50
2022-11-20T19:12:32.264Z,16.70
2022-11-20T19:14:58.938Z,16.27
2022-11-20T19:17:25.626Z,21.03
2022-11-20T19:19:54.816Z,19.50
2022-11-20T19:22:21.778Z,21.13
2022-11-20T19:24:49.227Z,23.37
2022-11-20T19:27:16.029Z,19.20
2022-11-20T19:29:42.785Z,22.30
2022-11-20T19:32:09.596Z,16.93
2022-11-20T19:34:36.323Z,18.33
2022-11-20T19:37:03.735Z,17.40
2022-11-20T19:39:30.863Z,15.33
2022-11-20T19:41:57.575Z,21.27
2022-11-20T19:44:24.304Z,18.73
2022-11-20T19:46:50.999Z,18.97
2022-11-20T19:49:17.736Z,21.17
2022-11-20T19:51:46.484Z,14.77
2022-11-20T19:54:13.770Z,15.47
2022-11-20T19:56:43.449Z,18.47
2022-11-20T19:59:10.618Z,19.67
2022-11-20T20:01:37.782Z,20.10
2022-11-20T20:04:05.827Z,13.97
2022-11-20T20:06:34.090Z,30.77
2022-11-20T20:09:02.595Z,16.67
2022-11-20T20:11:31.064Z,14.60
2022-11-20T20:13:59.212Z,16.67
2022-11-20T20:16:28.834Z,14.87
2022-11-20T20:18:57.061Z,17.00
2022-11-20T20:21:24.572Z,18.17
2022-11-20T20:23:53.307Z,15.53
2022-11-20T20:26:21.153Z,15.67
2022-11-20T20:28:48.661Z,19.10
2022-11-20T20:31:17.875Z,21.13
2022-11-20T20:33:45.422Z,18.17
2022-11-20T20:36:13.275Z,18.10
2022-11-20T20:38:40.439Z,21.10
2022-11-20T20:41:07.592Z,18.67
2022-11-20T20:43:53.276Z,23.83
2022-11-20T20:46:21.004Z,15.63
2022-11-20T20:48:54.015Z,20.60
2022-11-20T20:51:21.728Z,19.83
2022-11-20T20:53:48.872Z,20.87
2022-11-20T20:56:16.116Z,21.17
2022-11-20T20:58:43.291Z,20.77
2022-11-20T21:01:15.167Z,22.57
2022-11-20T21:03:42.924Z,18.13
2022-11-20T21:06:10.834Z,20.03
2022-11-20T21:08:40.706Z,22.93
2022-11-20T21:11:08.793Z,23.60
2022-11-20T21:13:36.453Z,21.40
2022-11-20T21:16:04.216Z,23.80
2022-11-20T21:18:32.254Z,23.23
2022-11-20T21:21:18.452Z,23.07
2022-11-20T21:23:48.927Z,28.77
2022-11-20T21:26:16.680Z,28.43
2022-11-20T21:28:44.087Z,30.17
2022-11-20T21:31:12.686Z,29.93
2022-11-20T21:33:43.416Z,36.47
2022-11-20T21:36:12.186Z,33.13
2022-11-20T21:38:39.428Z,46.73
2022-11-20T21:41:07.796Z,37.43
2022-11-20T21:43:35.093Z,40.73
2022-11-20T21:46:06.110Z,42.23
2022-11-20T21:48:33.831Z,46.07
2022-11-20T21:51:06.908Z,41.43
2022-11-20T21:53:34.369Z,42.30
2022-11-20T21:56:01.862Z,45.63
2022-11-20T21:58:29.144Z,49.93
2022-11-20T22:00:56.269Z,56.87
2022-11-20T22:03:23.671Z,52.47
2022-11-20T22:05:54.937Z,55.33
2022-11-20T22:08:22.026Z,59.50
2022-11-20T22:10:56.000Z,51.17
2022-11-20T22:13:42.306Z,57.57
2022-11-20T22:16:09.534Z,58.93
2022-11-20T22:18:36.681Z,58.13
2022-11-20T22:21:05.391Z,54.27
2022-11-20T22:23:32.530Z,52.83
2022-11-20T22:26:06.815Z,52.53
2022-11-20T22:28:34.466Z,61.83
2022-11-20T22:31:02.004Z,57.20
2022-11-20T22:33:29.807Z,49.60
2022-11-20T22:36:02.753Z,49.07
2022-11-20T22:38:33.995Z,52.27
2022-11-20T22:41:09.029Z,50.53
2022-11-20T22:43:36.091Z,42.33
2022-11-20T22:46:04.470Z,43.20
2022-11-20T22:48:31.853Z,46.63
2022-11-20T22:51:07.142Z,49.40
2022-11-20T22:53:34.528Z,46.97
2022-11-20T22:56:02.234Z,47.50
2022-11-20T22:58:30.424Z,49.10
2022-11-20T23:01:06.602Z,43.60
2022-11-20T23:03:33.849Z,34.57
2022-11-20T23:06:01.368Z,30.90
2022-11-20T23:08:28.756Z,30.60
2022-11-20T23:11:03.295Z,31.37
2022-11-20T23:13:30.591Z,36.43
2022-11-20T23:16:03.773Z,38.47
2022-11-20T23:18:31.083Z,32.33
2022-11-20T23:20:58.300Z,40.17
2022-11-20T23:23:25.465Z,45.83
2022-11-20T23:25:52.587Z,56.10
2022-11-20T23:28:19.746Z,54.73
2022-11-20T23:30:47.772Z,61.73
2022-11-20T23:33:14.876Z,75.97
2022-11-20T23:35:42.119Z,81.93
2022-11-20T23:38:09.402Z,71.60
2022-11-20T23:40:41.145Z,68.30
2022-11-20T23:43:17.849Z,59.97
2022-11-20T23:45:55.324Z,72.23
2022-11-20T23:48:23.730Z,58.13
2022-11-20T23:50:51.213Z,57.47
2022-11-20T23:53:18.763Z,57.27
2022-11-20T23:55:46.787Z,67.03
2022-11-20T23:58:14.403Z,63.27
